Time;durP1;ratioP1;P1;durP2;ratioP2;P2;SDS_P1;SDS_P2;PMS_P1;PMS_P2;Temp;Humidity;BMP_temperature;BMP_pressure;BME280_temperature;BME280_humidity;BME280_pressure;Samples;Min_cycle;Max_cycle;Signal;HPM_P1;HPM_P2
2022/06/05 00:01:11;;;;;;;0.20;0.20;;;12.90;99.90;;;;;;5053282;28;20071;-78
2022/06/05 00:03:42;;;;;;;1.80;0.25;;;12.90;99.90;;;;;;5036286;28;20067;-78
2022/06/05 00:06:16;;;;;;;0.00;0.00;;;12.90;99.90;;;;;;5052760;28;20045;-78
2022/06/05 00:08:55;;;;;;;0.20;0.20;;;12.90;99.90;;;;;;5053911;28;20467;-78
2022/06/05 00:11:22;;;;;;;0.10;0.10;;;12.80;99.90;;;;;;5053429;28;20052;-78
2022/06/05 00:13:52;;;;;;;0.00;0.00;;;12.90;99.90;;;;;;5036366;28;20393;-78
2022/06/05 00:16:24;;;;;;;0.00;0.00;;;12.80;99.90;;;;;;5036157;28;20408;-78
2022/06/05 00:18:50;;;;;;;0.00;0.00;;;12.80;99.90;;;;;;5053232;28;20049;-78
2022/06/05 00:21:16;;;;;;;0.10;0.10;;;12.80;99.90;;;;;;5036160;28;20060;-78
2022/06/05 00:23:42;;;;;;;0.00;0.00;;;12.80;99.90;;;;;;5053148;28;20053;-79
2022/06/05 00:26:34;;;;;;;0.00;0.00;;;12.80;99.90;;;;;;5052509;28;20044;-79
2022/06/05 00:29:32;;;;;;;0.03;0.03;;;12.80;99.90;;;;;;5036004;28;20099;-78
2022/06/05 00:32:14;;;;;;;0.00;0.00;;;12.80;99.90;;;;;;5053370;28;20389;-78
2022/06/05 00:34:42;;;;;;;0.00;0.00;;;12.70;99.90;;;;;;5052823;28;20053;-79
2022/06/05 00:37:48;;;;;;;0.00;0.00;;;12.70;99.90;;;;;;5052718;28;20510;-78
2022/06/05 00:40:33;;;;;;;0.00;0.00;;;12.70;99.90;;;;;;5036437;28;20122;-78
2022/06/05 00:43:04;;;;;;;0.40;0.40;;;12.60;99.90;;;;;;5052187;28;20374;-78
2022/06/05 00:45:31;;;;;;;0.00;0.00;;;12.60;99.90;;;;;;5052421;28;20091;-78
2022/06/05 00:47:58;;;;;;;0.80;0.20;;;12.70;99.90;;;;;;5036607;28;20060;-78
2022/06/05 00:50:30;;;;;;;0.00;0.00;;;12.60;99.90;;;;;;5036237;28;20049;-79
2022/06/05 00:52:59;;;;;;;0.28;0.10;;;12.60;99.90;;;;;;5053114;28;20400;-78
2022/06/05 00:55:29;;;;;;;0.00;0.00;;;12.60;99.90;;;;;;5052578;28;20056;-78
2022/06/05 00:57:58;;;;;;;0.00;0.00;;;12.60;99.90;;;;;;5035730;28;20497;-78
2022/06/05 01:00:28;;;;;;;0.00;0.00;;;12.60;99.90;;;;;;5039150;28;20064;-79
2022/06/05 01:02:56;;;;;;;7.68;0.75;;;12.60;99.90;;;;;;5056677;28;20053;-78
2022/06/05 01:05:24;;;;;;;0.00;0.00;;;12.60;99.90;;;;;;5039391;28;20489;-79
2022/06/05 01:07:49;;;;;;;0.00;0.00;;;12.60;99.90;;;;;;5056365;28;20041;-78
2022/06/05 01:10:17;;;;;;;0.47;0.38;;;12.50;99.90;;;;;;5056416;28;20051;-78
2022/06/05 01:12:58;;;;;;;1.02;0.63;;;12.50;99.90;;;;;;5056245;28;20088;-78
2022/06/05 01:15:40;;;;;;;0.00;0.00;;;12.50;99.90;;;;;;5056288;28;20396;-78
2022/06/05 01:18:17;;;;;;;0.10;0.00;;;12.50;99.90;;;;;;5056460;28;20477;-78
2022/06/05 01:21:07;;;;;;;0.00;0.00;;;12.40;99.90;;;;;;5039703;28;20044;-78
2022/06/05 01:23:39;;;;;;;0.00;0.00;;;12.40;99.90;;;;;;5039471;28;20491;-78
2022/06/05 01:26:40;;;;;;;0.00;0.00;;;12.40;99.90;;;;;;5055792;28;20417;-78
2022/06/05 01:29:09;;;;;;;0.98;0.28;;;12.40;99.90;;;;;;5039463;28;20049;-78
2022/06/05 01:31:51;;;;;;;0.00;0.00;;;12.40;99.90;;;;;;5055925;28;20056;-79
2022/06/05 01:34:32;;;;;;;0.00;0.00;;;12.40;99.90;;;;;;5039785;28;20497;-78
2022/06/05 01:37:14;;;;;;;0.00;0.00;;;12.40;99.90;;;;;;5056353;28;20041;-79
2022/06/05 01:40:17;;;;;;;0.10;0.10;;;12.30;99.90;;;;;;5055919;28;20097;-79
2022/06/05 01:42:51;;;;;;;0.40;0.00;;;12.30;99.90;;;;;;5055677;28;20136;-79
2022/06/05 01:45:27;;;;;;;0.00;0.00;;;12.30;99.90;;;;;;5039051;28;20519;-79
2022/06/05 01:47:56;;;;;;;1.27;0.75;;;12.20;99.90;;;;;;5039162;28;20044;-78
2022/06/05 01:50:52;;;;;;;0.17;0.00;;;12.20;99.90;;;;;;5055632;28;20049;-79
2022/06/05 01:53:20;;;;;;;0.00;0.00;;;12.20;99.90;;;;;;5055123;28;20472;-78
2022/06/05 01:55:53;;;;;;;0.22;0.08;;;12.20;99.90;;;;;;5038994;28;20041;-79
2022/06/05 01:58:25;;;;;;;0.10;0.10;;;12.20;99.90;;;;;;5038889;28;20373;-79
2022/06/05 02:00:54;;;;;;;0.00;0.00;;;12.20;99.90;;;;;;5055496;28;20041;-79
2022/06/05 02:03:28;;;;;;;0.30;0.10;;;12.20;99.90;;;;;;5054806;28;20052;-78
2022/06/05 02:06:00;;;;;;;1.45;0.75;;;12.20;99.90;;;;;;5038728;28;20477;-78
2022/06/05 02:08:34;;;;;;;0.00;0.00;;;12.10;99.90;;;;;;5055543;28;20393;-79
2022/06/05 02:11:00;;;;;;;0.00;0.00;;;12.10;99.90;;;;;;5055109;28;20037;-78
2022/06/05 02:13:25;;;;;;;0.00;0.00;;;12.20;99.90;;;;;;5055049;28;20117;-78
2022/06/05 02:15:52;;;;;;;0.10;0.10;;;12.10;99.90;;;;;;5039292;28;20037;-79
2022/06/05 02:18:18;;;;;;;0.00;0.00;;;12.10;99.90;;;;;;5055285;28;20049;-78
2022/06/05 02:20:45;;;;;;;0.05;0.05;;;12.20;99.90;;;;;;5055081;28;20056;-78
2022/06/05 02:23:14;;;;;;;0.00;0.00;;;12.10;99.90;;;;;;5055079;28;20491;-78
2022/06/05 02:25:40;;;;;;;0.32;0.22;;;12.10;99.90;;;;;;5038265;28;20120;-79
2022/06/05 02:28:10;;;;;;;0.00;0.00;;;12.10;99.90;;;;;;5055247;28;20053;-79
2022/06/05 02:30:45;;;;;;;0.00;0.00;;;12.10;99.90;;;;;;5054763;28;20041;-79
2022/06/05 02:33:17;;;;;;;0.00;0.00;;;12.00;99.90;;;;;;5038138;28;20088;-79
2022/06/05 02:36:19;;;;;;;0.00;0.00;;;12.00;99.90;;;;;;5054776;28;20048;-79
2022/06/05 02:38:56;;;;;;;0.93;0.55;;;12.00;99.90;;;;;;4996577;28;20064;-79
2022/06/05 02:41:32;;;;;;;0.00;0.00;;;12.00;99.90;;;;;;4994622;28;20056;-78
2022/06/05 02:44:29;;;;;;;0.00;0.00;;;12.00;99.90;;;;;;4996867;28;20065;-79
2022/06/05 02:47:25;;;;;;;0.00;0.00;;;12.00;99.90;;;;;;4981552;28;20057;-79
2022/06/05 02:50:01;;;;;;;0.10;0.10;;;12.00;99.90;;;;;;4997951;28;20153;-79
2022/06/05 02:52:30;;;;;;;0.10;0.10;;;12.00;99.90;;;;;;4997363;28;20505;-79
2022/06/05 02:55:03;;;;;;;0.00;0.00;;;12.00;99.90;;;;;;4997498;28;20120;-79
2022/06/05 02:57:29;;;;;;;0.10;0.10;;;12.10;99.90;;;;;;4997114;28;20375;-79
2022/06/05 02:59:55;;;;;;;0.13;0.13;;;12.00;99.90;;;;;;4997294;28;20052;-79
2022/06/05 03:05:06;;;;;;;0.25;0.25;;;12.10;99.90;;;;;;4996718;28;20089;-79
2022/06/05 03:07:32;;;;;;;0.00;0.00;;;12.00;99.90;;;;;;4997667;28;20046;-79
2022/06/05 03:09:57;;;;;;;0.00;0.00;;;12.00;99.90;;;;;;4997126;28;20157;-79
2022/06/05 03:12:23;;;;;;;0.20;0.20;;;12.00;99.90;;;;;;4997084;28;20038;-79
2022/06/05 03:14:49;;;;;;;0.00;0.00;;;12.10;99.90;;;;;;4994223;28;20049;-79
2022/06/05 03:17:14;;;;;;;2.92;0.10;;;12.10;99.90;;;;;;5053992;28;20049;-79
2022/06/05 03:19:41;;;;;;;0.63;0.00;;;12.10;99.90;;;;;;5037336;28;20056;-79
2022/06/05 03:22:07;;;;;;;0.00;0.00;;;12.10;99.90;;;;;;5037014;28;20056;-79
2022/06/05 03:24:33;;;;;;;0.00;0.00;;;12.10;99.90;;;;;;5037761;28;20041;-79
2022/06/05 03:26:59;;;;;;;0.00;0.00;;;12.10;99.90;;;;;;5053905;28;20083;-79
2022/06/05 03:29:24;;;;;;;0.00;0.00;;;12.10;99.90;;;;;;5054347;28;20037;-79
2022/06/05 03:31:50;;;;;;;0.57;0.17;;;12.20;99.90;;;;;;5037264;28;20048;-79
2022/06/05 03:34:17;;;;;;;0.00;0.00;;;12.20;99.90;;;;;;5037125;28;20119;-79
2022/06/05 03:36:44;;;;;;;0.00;0.00;;;12.20;99.90;;;;;;5054232;28;20127;-79
2022/06/05 03:39:10;;;;;;;0.20;0.20;;;12.20;99.90;;;;;;5054339;28;20064;-79
2022/06/05 03:41:36;;;;;;;0.00;0.00;;;12.20;99.90;;;;;;5036953;28;20474;-80
2022/06/05 03:44:02;;;;;;;0.00;0.00;;;12.20;99.90;;;;;;5036814;28;20052;-79
2022/06/05 03:46:28;;;;;;;0.00;0.00;;;12.30;99.90;;;;;;5053309;28;20114;-79
2022/06/05 03:48:53;;;;;;;0.65;0.60;;;12.30;99.90;;;;;;5053475;28;20481;-79
2022/06/05 03:51:21;;;;;;;3.00;0.90;;;12.30;99.90;;;;;;5053715;28;20041;-79
2022/06/05 03:53:47;;;;;;;0.00;0.00;;;12.30;99.90;;;;;;5053315;28;20044;-79
2022/06/05 03:56:18;;;;;;;0.00;0.00;;;12.40;99.90;;;;;;5053199;28;20111;-79
2022/06/05 03:58:44;;;;;;;0.05;0.00;;;12.40;99.90;;;;;;5037079;28;20045;-79
2022/06/05 04:01:12;;;;;;;0.50;0.03;;;12.40;99.90;;;;;;5053278;28;20114;-79
2022/06/05 04:03:39;;;;;;;0.00;0.00;;;12.50;99.90;;;;;;5052276;28;20075;-79
2022/06/05 04:06:10;;;;;;;1.33;0.60;;;12.50;99.90;;;;;;5035292;28;20064;-79
2022/06/05 04:08:37;;;;;;;3.08;0.40;;;12.60;99.90;;;;;;5036250;28;20045;-79
2022/06/05 04:11:07;;;;;;;1.00;0.22;;;12.60;99.90;;;;;;5052426;28;20083;-79
2022/06/05 04:13:33;;;;;;;0.03;0.00;;;12.60;99.90;;;;;;5035724;28;20132;-80
2022/06/05 04:15:59;;;;;;;3.58;0.00;;;12.60;99.90;;;;;;5052325;28;20562;-79
2022/06/05 04:18:25;;;;;;;0.00;0.00;;;12.60;99.90;;;;;;5035714;28;20070;-79
2022/06/05 04:20:50;;;;;;;0.00;0.00;;;12.70;99.90;;;;;;5052385;28;20056;-79
2022/06/05 04:23:16;;;;;;;0.00;0.00;;;12.70;99.90;;;;;;5052594;28;20045;-79
2022/06/05 04:25:43;;;;;;;0.80;0.30;;;12.70;99.90;;;;;;5052055;28;20128;-79
2022/06/05 04:28:09;;;;;;;0.00;0.00;;;12.70;99.90;;;;;;5052011;28;20045;-79
2022/06/05 04:30:36;;;;;;;0.00;0.00;;;12.80;99.90;;;;;;5051958;28;20041;-79
2022/06/05 04:33:03;;;;;;;1.55;0.35;;;12.80;99.90;;;;;;5051248;28;20041;-79
2022/06/05 04:35:29;;;;;;;0.00;0.00;;;12.90;99.90;;;;;;5051243;28;20094;-79
2022/06/05 04:37:54;;;;;;;0.10;0.00;;;12.90;99.90;;;;;;5051978;28;20040;-79
2022/06/05 04:40:20;;;;;;;1.27;0.00;;;13.00;99.90;;;;;;5052035;28;20040;-80
2022/06/05 04:42:46;;;;;;;7.68;0.65;;;13.00;99.90;;;;;;5051818;28;20053;-79
2022/06/05 04:45:12;;;;;;;0.85;0.10;;;13.10;99.90;;;;;;5035002;28;20041;-79
2022/06/05 04:47:39;;;;;;;0.43;0.40;;;13.10;99.90;;;;;;5035625;28;20056;-80
2022/06/05 04:50:06;;;;;;;0.00;0.00;;;13.20;99.90;;;;;;5052004;28;20432;-80
2022/06/05 04:52:32;;;;;;;0.35;0.00;;;13.30;99.90;;;;;;5051903;28;20053;-81
2022/06/05 04:54:57;;;;;;;0.00;0.00;;;13.30;99.90;;;;;;5035242;28;20056;-81
2022/06/05 04:57:23;;;;;;;0.00;0.00;;;13.40;99.90;;;;;;5051878;28;20148;-81
2022/06/05 04:59:49;;;;;;;0.20;0.20;;;13.40;99.90;;;;;;5051732;28;20507;-80
2022/06/05 05:02:17;;;;;;;0.00;0.00;;;13.60;99.90;;;;;;5006963;28;1281218;-81
2022/06/05 05:04:42;;;;;;;0.10;0.10;;;13.60;99.90;;;;;;5052943;28;20048;-81
2022/06/05 05:07:08;;;;;;;1.60;0.63;;;13.70;99.90;;;;;;5052734;28;20076;-81
2022/06/05 05:09:34;;;;;;;0.08;0.08;;;13.80;99.90;;;;;;5036666;28;20055;-81
2022/06/05 05:12:00;;;;;;;0.08;0.00;;;13.80;99.90;;;;;;5052832;28;20479;-81
2022/06/05 05:14:25;;;;;;;0.00;0.00;;;13.90;99.90;;;;;;5052517;28;20067;-81
2022/06/05 05:16:51;;;;;;;0.10;0.00;;;14.00;99.90;;;;;;5034346;28;20052;-81
2022/06/05 05:19:17;;;;;;;3.03;0.32;;;14.10;99.90;;;;;;5034557;28;20459;-81
2022/06/05 05:21:42;;;;;;;0.30;0.30;;;14.10;99.90;;;;;;5052567;28;20120;-81
2022/06/05 05:24:08;;;;;;;0.10;0.10;;;14.20;99.90;;;;;;5035913;28;20061;-81
2022/06/05 05:26:34;;;;;;;0.10;0.10;;;14.30;99.90;;;;;;5052366;28;20045;-80
2022/06/05 05:29:02;;;;;;;0.00;0.00;;;14.30;99.90;;;;;;5035637;28;20551;-81
2022/06/05 05:31:32;;;;;;;0.00;0.00;;;14.30;99.90;;;;;;5052470;28;20037;-81
2022/06/05 05:33:58;;;;;;;0.10;0.10;;;14.40;99.90;;;;;;5035295;28;20470;-81
2022/06/05 05:36:25;;;;;;;2.90;0.70;;;14.40;99.90;;;;;;5035458;28;20497;-81
2022/06/05 05:44:21;;;;;;;0.10;0.10;;;14.60;99.90;;;;;;5052835;28;20044;-82
2022/06/05 05:46:47;;;;;;;0.17;0.17;;;14.70;99.90;;;;;;5055726;28;20048;-82
2022/06/05 05:49:14;;;;;;;0.35;0.03;;;14.80;99.90;;;;;;5039105;28;20444;-82
2022/06/05 05:51:41;;;;;;;0.00;0.00;;;14.80;99.90;;;;;;5039505;28;20107;-81
2022/06/05 05:54:08;;;;;;;0.20;0.15;;;14.90;99.90;;;;;;5039211;28;20084;-82
2022/06/05 05:56:35;;;;;;;0.35;0.10;;;14.90;99.90;;;;;;5055709;28;20048;-82
2022/06/05 05:59:01;;;;;;;0.00;0.00;;;15.00;99.90;;;;;;5055747;28;20096;-82
2022/06/05 06:01:27;;;;;;;0.80;0.20;;;15.00;99.90;;;;;;5055695;28;20088;-82
2022/06/05 06:03:53;;;;;;;0.15;0.15;;;15.10;99.90;;;;;;5054720;28;20534;-82
2022/06/05 06:06:27;;;;;;;5.50;0.30;;;15.10;99.90;;;;;;5055302;28;20080;-81
2022/06/05 06:08:53;;;;;;;0.25;0.10;;;15.20;99.90;;;;;;5038927;28;20490;-82
2022/06/05 06:11:19;;;;;;;0.08;0.08;;;15.20;99.90;;;;;;5055110;28;20041;-83
2022/06/05 06:13:45;;;;;;;0.00;0.00;;;15.30;99.90;;;;;;5056731;28;20057;-82
2022/06/05 06:16:10;;;;;;;0.90;0.13;;;15.30;99.90;;;;;;5075176;28;20503;-82
2022/06/05 06:18:36;;;;;;;0.43;0.10;;;15.40;99.90;;;;;;5075001;28;20032;-83
2022/06/05 06:21:02;;;;;;;0.00;0.00;;;15.50;99.90;;;;;;5074423;28;20064;-82
2022/06/05 06:23:28;;;;;;;0.90;0.10;;;15.50;99.90;;;;;;5059367;28;20056;-82
2022/06/05 06:25:53;;;;;;;0.08;0.00;;;15.60;99.90;;;;;;5058071;28;20051;-82
2022/06/05 06:28:19;;;;;;;0.00;0.00;;;15.70;99.90;;;;;;5059189;28;20056;-82
2022/06/05 06:30:45;;;;;;;0.40;0.17;;;15.80;99.90;;;;;;5074636;28;20395;-82
2022/06/05 06:33:11;;;;;;;0.30;0.22;;;15.90;99.90;;;;;;5058545;28;20059;-83
2022/06/05 06:35:37;;;;;;;0.10;0.10;;;16.00;99.90;;;;;;5074896;28;20052;-82
2022/06/05 06:38:04;;;;;;;0.00;0.00;;;16.10;99.90;;;;;;5058403;28;20123;-82
2022/06/05 06:40:30;;;;;;;2.17;0.40;;;16.20;99.90;;;;;;5074893;28;20060;-82
2022/06/05 06:42:56;;;;;;;1.95;0.38;;;16.30;99.90;;;;;;5057928;28;20044;-82
2022/06/05 06:45:22;;;;;;;0.00;0.00;;;16.40;99.90;;;;;;5057929;28;20037;-82
2022/06/05 06:47:48;;;;;;;0.10;0.10;;;16.50;99.90;;;;;;5058066;28;20056;-81
2022/06/05 06:50:14;;;;;;;2.42;0.45;;;16.70;99.90;;;;;;5074172;28;20400;-82
2022/06/05 06:52:40;;;;;;;1.08;0.00;;;16.80;99.90;;;;;;5058190;28;20121;-82
2022/06/05 06:55:07;;;;;;;0.35;0.13;;;17.00;99.90;;;;;;5074735;28;20131;-82
2022/06/05 06:57:33;;;;;;;0.10;0.10;;;17.10;99.90;;;;;;5056630;28;20052;-82
2022/06/05 06:59:59;;;;;;;0.00;0.00;;;17.30;99.90;;;;;;5074607;28;20089;-82
2022/06/05 07:02:24;;;;;;;0.00;0.00;;;17.40;99.90;;;;;;5074060;28;20539;-82
2022/06/05 07:04:50;;;;;;;1.42;0.50;;;17.50;99.90;;;;;;5073989;28;20049;-81
2022/06/05 07:07:16;;;;;;;0.00;0.00;;;17.50;99.90;;;;;;5057474;28;20049;-82
2022/06/05 07:09:42;;;;;;;0.10;0.10;;;17.70;99.90;;;;;;5057430;28;20048;-81
2022/06/05 07:12:07;;;;;;;0.17;0.03;;;17.90;99.90;;;;;;5057679;28;20044;-81
2022/06/05 07:14:33;;;;;;;0.22;0.15;;;17.90;99.90;;;;;;5074142;28;20106;-83
2022/06/05 07:16:59;;;;;;;3.03;0.40;;;18.10;99.90;;;;;;5074040;28;20075;-82
2022/06/05 07:19:24;;;;;;;28.50;0.65;;;18.10;99.90;;;;;;5074021;28;20477;-82
2022/06/05 07:21:50;;;;;;;0.00;0.00;;;18.10;99.90;;;;;;5074026;28;20083;-82
2022/06/05 07:24:16;;;;;;;0.00;0.00;;;18.20;99.90;;;;;;5073952;28;20388;-83
2022/06/05 07:26:42;;;;;;;0.00;0.00;;;18.20;99.90;;;;;;5073864;28;20045;-82
2022/06/05 07:29:08;;;;;;;0.00;0.00;;;18.30;99.90;;;;;;5057199;28;20052;-82
2022/06/05 07:31:34;;;;;;;2.30;0.20;;;18.30;99.90;;;;;;5056833;28;20106;-82
2022/06/05 07:34:00;;;;;;;0.10;0.00;;;18.50;99.90;;;;;;5056983;28;20059;-81
2022/06/05 07:36:27;;;;;;;0.20;0.20;;;18.60;99.90;;;;;;5074253;28;20093;-82
2022/06/05 07:38:55;;;;;;;0.60;0.20;;;18.70;99.90;;;;;;5073473;28;20430;-82
2022/06/05 07:41:36;;;;;;;0.00;0.00;;;18.80;99.90;;;;;;5073630;28;20154;-82
2022/06/05 07:44:03;;;;;;;0.32;0.32;;;18.90;99.90;;;;;;5056853;28;20052;-82
2022/06/05 07:46:30;;;;;;;0.52;0.00;;;19.00;99.90;;;;;;5073122;28;20041;-82
2022/06/05 07:48:56;;;;;;;1.45;0.17;;;19.10;99.90;;;;;;5057485;28;20052;-82
2022/06/05 07:54:27;;;;;;;0.05;0.00;;;19.30;99.90;;;;;;5072496;28;20059;-82
2022/06/05 07:56:54;;;;;;;0.10;0.10;;;19.30;99.90;;;;;;5073291;28;20040;-82
2022/06/05 07:59:20;;;;;;;0.00;0.00;;;19.50;99.90;;;;;;5073767;28;20048;-82
2022/06/05 08:01:46;;;;;;;0.00;0.00;;;19.50;99.90;;;;;;5072171;28;20430;-82
2022/06/05 08:04:12;;;;;;;0.00;0.00;;;19.60;99.90;;;;;;5054606;28;20080;-81
2022/06/05 08:06:39;;;;;;;0.10;0.10;;;19.60;99.90;;;;;;5036125;28;20087;-82
2022/06/05 08:09:08;;;;;;;0.20;0.00;;;19.70;99.90;;;;;;5052963;28;20519;-82
2022/06/05 08:11:34;;;;;;;0.00;0.00;;;19.70;99.90;;;;;;5053131;28;20045;-81
2022/06/05 08:14:00;;;;;;;0.20;0.00;;;19.80;99.90;;;;;;5053240;28;20048;-81
2022/06/05 08:16:27;;;;;;;0.15;0.15;;;19.80;99.90;;;;;;5053336;28;20369;-81
2022/06/05 08:18:54;;;;;;;0.10;0.10;;;19.80;99.90;;;;;;5053089;28;20138;-82
2022/06/05 08:21:23;;;;;;;0.20;0.10;;;19.80;99.90;;;;;;5053108;28;20064;-82
2022/06/05 08:23:49;;;;;;;0.10;0.10;;;19.90;99.90;;;;;;5036586;28;20408;-81
2022/06/05 08:26:15;;;;;;;0.00;0.00;;;20.00;99.90;;;;;;5053040;28;20052;-82
2022/06/05 08:28:41;;;;;;;0.00;0.00;;;20.00;99.90;;;;;;5036912;28;20393;-82
2022/06/05 08:31:07;;;;;;;0.10;0.10;;;20.10;99.90;;;;;;5036741;28;20063;-82
2022/06/05 08:33:33;;;;;;;0.03;0.03;;;20.20;99.90;;;;;;5052697;28;20053;-81
2022/06/05 08:35:59;;;;;;;0.00;0.00;;;20.30;99.90;;;;;;5036295;28;20382;-81
2022/06/05 08:41:29;;;;;;;0.17;0.17;;;20.60;99.90;;;;;;5052661;28;20045;-81
2022/06/05 08:44:30;;;;;;;0.00;0.00;;;20.70;99.90;;;;;;5036157;28;20057;-81
2022/06/05 08:46:58;;;;;;;0.00;0.00;;;20.80;99.90;;;;;;4997007;28;20050;-81
2022/06/05 08:49:32;;;;;;;0.20;0.00;;;21.00;99.90;;;;;;5015227;28;20068;-81
2022/06/05 08:52:11;;;;;;;0.25;0.25;;;21.10;99.90;;;;;;4999341;28;20084;-81
2022/06/05 08:54:42;;;;;;;1.50;0.10;;;21.20;99.90;;;;;;4999217;28;20084;-81
2022/06/05 08:57:17;;;;;;;0.20;0.20;;;21.30;99.90;;;;;;4998966;28;20060;-81
2022/06/05 08:59:48;;;;;;;;;;;21.30;99.80;;;;;;4999322;28;20068;-81
2022/06/05 09:02:41;;;;;;;0.10;0.00;;;21.30;99.90;;;;;;4998868;28;19928;-81
2022/06/05 09:05:22;;;;;;;0.00;0.00;;;21.40;99.90;;;;;;4902473;29;20055;-81
2022/06/05 09:07:51;;;;;;;0.00;0.00;;;21.40;99.90;;;;;;4918640;29;20626;-82
2022/06/05 09:10:26;;;;;;;0.00;0.00;;;21.40;99.70;;;;;;4902790;29;20103;-81
2022/06/05 09:13:01;;;;;;;0.00;0.00;;;21.50;99.90;;;;;;4903307;29;20066;-81
2022/06/05 09:15:33;;;;;;;0.10;0.00;;;21.50;99.90;;;;;;4918161;29;20058;-82
2022/06/05 09:18:01;;;;;;;0.00;0.00;;;21.70;99.90;;;;;;4902871;29;20603;-82
2022/06/05 09:20:46;;;;;;;0.10;0.10;;;21.80;99.90;;;;;;4903992;29;20052;-82
2022/06/05 09:23:21;;;;;;;0.00;0.00;;;22.00;99.90;;;;;;4937496;28;20094;-82
2022/06/05 09:25:59;;;;;;;0.03;0.03;;;22.00;99.90;;;;;;4969749;28;20039;-81
2022/06/05 09:28:25;;;;;;;0.10;0.10;;;22.20;99.90;;;;;;4969987;28;20057;-81
2022/06/05 09:30:59;;;;;;;0.08;0.08;;;22.40;99.90;;;;;;4966822;28;20034;-81
2022/06/05 09:33:34;;;;;;;0.00;0.00;;;22.40;98.20;;;;;;4969982;28;20085;-82
2022/06/05 09:36:08;;;;;;;0.00;0.00;;;22.50;98.70;;;;;;4967884;28;20137;-82
2022/06/05 09:38:42;;;;;;;0.10;0.10;;;22.60;99.30;;;;;;4969903;28;20050;-82
2022/06/05 09:41:11;;;;;;;0.00;0.00;;;22.60;98.20;;;;;;4976409;28;20054;-82
2022/06/05 09:43:45;;;;;;;0.05;0.00;;;22.60;97.50;;;;;;5049188;28;20148;-82
2022/06/05 09:46:36;;;;;;;3.20;0.20;;;22.60;98.00;;;;;;5046769;28;20040;-82
2022/06/05 09:49:18;;;;;;;0.10;0.00;;;22.70;98.40;;;;;;5050227;28;20071;-82
2022/06/05 09:51:45;;;;;;;0.03;0.03;;;22.70;99.40;;;;;;5047952;28;20512;-82
2022/06/05 09:54:22;;;;;;;0.00;0.00;;;22.70;97.90;;;;;;5065424;28;20049;-82
2022/06/05 10:00:26;;;;;;;0.00;0.00;;;22.70;98.90;;;;;;5056395;28;20110;-82
2022/06/05 10:02:59;;;;;;;0.20;0.20;;;22.70;98.30;;;;;;5055718;28;20068;-82
2022/06/05 10:05:29;;;;;;;0.20;0.10;;;22.60;98.60;;;;;;5038791;28;20048;-82
2022/06/05 10:08:03;;;;;;;0.15;0.00;;;22.70;98.10;;;;;;5061826;28;20044;-82
2022/06/05 10:10:36;;;;;;;0.03;0.03;;;22.70;99.40;;;;;;5058677;28;20067;-82
2022/06/05 10:13:11;;;;;;;0.00;0.00;;;22.70;98.80;;;;;;5058436;28;20480;-82
2022/06/05 10:16:04;;;;;;;0.52;0.13;;;22.80;98.50;;;;;;5075336;28;20049;-83
2022/06/05 10:18:33;;;;;;;0.00;0.00;;;22.90;98.30;;;;;;5075191;28;20048;-83
2022/06/05 10:21:11;;;;;;;0.10;0.10;;;23.10;97.70;;;;;;5075218;28;20048;-83
2022/06/05 10:24:14;;;;;;;0.13;0.13;;;23.30;98.10;;;;;;5074990;28;20047;-83
2022/06/05 10:26:47;;;;;;;0.00;0.00;;;23.30;97.30;;;;;;5058061;28;20052;-83
2022/06/05 10:29:20;;;;;;;0.00;0.00;;;23.40;97.80;;;;;;5075413;28;20076;-82
2022/06/05 10:32:11;;;;;;;0.00;0.00;;;23.40;97.80;;;;;;5072197;28;20045;-83
2022/06/05 10:35:04;;;;;;;0.15;0.15;;;23.40;97.80;;;;;;5048510;28;20139;-83
2022/06/05 10:37:44;;;;;;;0.00;0.00;;;23.30;98.20;;;;;;4982019;28;20061;-82
2022/06/05 10:40:17;;;;;;;0.08;0.00;;;23.30;97.30;;;;;;4997809;28;20057;-83
2022/06/05 10:43:21;;;;;;;0.10;0.10;;;23.30;97.30;;;;;;4997783;28;20057;-83
2022/06/05 10:45:51;;;;;;;0.00;0.00;;;23.20;97.10;;;;;;4923451;29;20562;-83
2022/06/05 10:48:41;;;;;;;0.10;0.03;;;23.10;96.40;;;;;;4939537;29;20051;-83
2022/06/05 10:51:32;;;;;;;0.00;0.00;;;23.00;96.60;;;;;;4923652;29;20055;-82
2022/06/05 10:54:20;;;;;;;0.30;0.30;;;23.00;96.90;;;;;;4917208;28;20110;-82
2022/06/05 10:57:10;;;;;;;0.22;0.20;;;22.90;96.90;;;;;;4923724;29;20098;-82
2022/06/05 10:59:44;;;;;;;0.10;0.10;;;22.90;97.50;;;;;;4923479;29;20062;-82
2022/06/05 11:02:34;;;;;;;0.00;0.00;;;22.80;97.10;;;;;;4923313;29;20451;-82
2022/06/05 11:05:29;;;;;;;0.20;0.10;;;22.70;97.00;;;;;;4923097;29;20098;-82
2022/06/05 11:08:23;;;;;;;0.05;0.05;;;22.70;96.90;;;;;;4939125;29;20156;-81
2022/06/05 11:13:44;;;;;;;0.00;0.00;;;22.60;98.00;;;;;;4944423;28;20097;-82
2022/06/05 11:16:24;;;;;;;0.00;0.00;;;22.60;97.40;;;;;;4977609;28;20050;-82
2022/06/05 11:19:08;;;;;;;0.15;0.00;;;22.50;97.30;;;;;;4961530;28;20078;-82
2022/06/05 11:21:34;;;;;;;1.85;0.43;;;22.50;97.90;;;;;;4987418;28;20064;-82
2022/06/05 11:24:05;;;;;;;0.08;0.08;;;22.60;98.70;;;;;;5037410;28;20057;-82
2022/06/05 11:26:44;;;;;;;0.00;0.00;;;22.50;97.20;;;;;;5037098;28;20166;-82
2022/06/05 11:29:25;;;;;;;0.00;0.00;;;22.50;97.40;;;;;;5037005;28;20501;-82
2022/06/05 11:31:59;;;;;;;0.00;0.00;;;22.50;98.00;;;;;;5054048;28;20041;-82
2022/06/05 11:34:46;;;;;;;0.00;0.00;;;22.50;98.00;;;;;;5037157;28;20045;-82
2022/06/05 11:37:44;;;;;;;0.20;0.15;;;22.50;98.30;;;;;;5053600;28;20080;-82
2022/06/05 11:40:42;;;;;;;0.10;0.00;;;22.60;98.20;;;;;;5054459;28;20097;-82
2022/06/05 11:43:33;;;;;;;0.10;0.10;;;22.60;98.80;;;;;;5052858;28;20057;-82
2022/06/05 11:46:39;;;;;;;0.00;0.00;;;22.60;98.80;;;;;;5060952;28;20041;-82
2022/06/05 11:49:18;;;;;;;7.57;0.75;;;22.60;98.20;;;;;;4996443;28;20049;-82
2022/06/05 11:52:03;;;;;;;0.55;0.35;;;22.60;98.20;;;;;;4996518;28;20054;-82
2022/06/05 11:54:58;;;;;;;0.00;0.00;;;22.60;97.90;;;;;;4992929;28;20041;-82
2022/06/05 11:57:24;;;;;;;;;;;22.60;98.20;;;;;;4990367;28;20053;-83
2022/06/05 12:00:04;;;;;;;0.08;0.00;;;22.60;98.40;;;;;;4988674;28;19929;-82
2022/06/05 12:02:42;;;;;;;0.10;0.10;;;22.60;97.40;;;;;;4988794;28;20058;-82
2022/06/05 12:05:42;;;;;;;0.38;0.20;;;22.60;97.90;;;;;;5012938;28;20564;-82
2022/06/05 12:08:36;;;;;;;0.08;0.08;;;22.60;98.70;;;;;;5011799;28;20449;-82
2022/06/05 12:11:16;;;;;;;0.00;0.00;;;22.60;97.70;;;;;;5015695;28;20045;-82
2022/06/05 12:13:54;;;;;;;0.00;0.00;;;22.70;98.40;;;;;;5015592;28;20049;-82
2022/06/05 12:16:20;;;;;;;0.00;0.00;;;22.70;98.40;;;;;;4999249;28;20053;-83
2022/06/05 12:18:54;;;;;;;0.15;0.15;;;22.70;99.40;;;;;;5015335;28;20107;-82
2022/06/05 12:21:28;;;;;;;0.00;0.00;;;22.70;98.00;;;;;;4999715;28;20136;-81
2022/06/05 12:24:13;;;;;;;0.00;0.00;;;22.70;98.60;;;;;;5030678;28;20064;-82
2022/06/05 12:26:55;;;;;;;0.52;0.13;;;22.70;98.30;;;;;;5052987;28;20493;-82
2022/06/05 12:29:27;;;;;;;0.00;0.00;;;22.70;98.20;;;;;;5052648;28;20504;-82
2022/06/05 12:32:03;;;;;;;0.00;0.00;;;22.80;98.80;;;;;;5052398;28;20052;-83
2022/06/05 12:34:42;;;;;;;0.73;0.10;;;22.80;98.90;;;;;;5053109;28;20045;-83
2022/06/05 12:37:28;;;;;;;0.05;0.00;;;22.90;99.40;;;;;;5053027;28;20056;-82
2022/06/05 12:39:56;;;;;;;0.00;0.00;;;22.90;98.90;;;;;;5052641;28;20131;-82
2022/06/05 12:42:30;;;;;;;0.00;0.00;;;23.00;98.80;;;;;;5052424;28;20060;-83
2022/06/05 12:44:59;;;;;;;0.10;0.10;;;23.00;97.90;;;;;;5052139;28;20489;-83
2022/06/05 12:47:24;;;;;;;0.10;0.00;;;23.10;97.90;;;;;;5035619;28;20064;-82
2022/06/05 12:49:53;;;;;;;0.00;0.00;;;23.20;99.10;;;;;;5052773;28;20385;-82
2022/06/05 12:52:32;;;;;;;0.15;0.15;;;23.30;98.10;;;;;;5035877;28;20040;-82
2022/06/05 12:55:28;;;;;;;0.00;0.00;;;23.40;98.40;;;;;;5036352;28;20095;-82
2022/06/05 12:58:02;;;;;;;0.10;0.10;;;23.50;97.70;;;;;;5056509;28;20041;-82
2022/06/05 13:01:00;;;;;;;0.03;0.03;;;23.50;97.90;;;;;;5039934;28;20049;-82
2022/06/05 13:03:38;;;;;;;0.10;0.00;;;23.60;98.10;;;;;;5056334;28;20443;-82
2022/06/05 13:06:23;;;;;;;0.13;0.13;;;23.70;98.50;;;;;;5056198;28;20053;-82
2022/06/05 13:08:50;;;;;;;;;;;23.60;97.40;;;;;;5040174;28;20052;-82
2022/06/05 13:11:31;;;;;;;0.00;0.00;;;23.70;98.00;;;;;;5056332;28;19939;-82
2022/06/05 13:14:14;;;;;;;0.05;0.00;;;23.70;97.70;;;;;;5039999;28;20063;-82
2022/06/05 13:17:01;;;;;;;0.00;0.00;;;23.70;98.90;;;;;;5056543;28;20045;-82
2022/06/05 13:19:35;;;;;;;0.00;0.00;;;23.80;97.40;;;;;;5039771;28;20440;-83
2022/06/05 13:22:06;;;;;;;0.00;0.00;;;23.90;96.90;;;;;;5055915;28;20045;-82
2022/06/05 13:24:37;;;;;;;0.10;0.00;;;24.00;97.00;;;;;;5056665;28;20045;-82
2022/06/05 13:27:21;;;;;;;0.10;0.10;;;24.10;98.20;;;;;;5056011;28;20539;-82
2022/06/05 13:30:01;;;;;;;0.15;0.10;;;24.20;97.90;;;;;;5056030;28;20107;-82
2022/06/05 13:32:45;;;;;;;1.08;0.10;;;24.30;96.00;;;;;;5055909;28;20052;-82
2022/06/05 13:35:44;;;;;;;0.00;0.00;;;24.40;95.40;;;;;;5056099;28;20049;-82
2022/06/05 13:38:34;;;;;;;0.10;0.10;;;24.50;96.50;;;;;;4998813;28;20147;-83